Home

PKWA Terminal Aerodrome Forecast (TAF)small logo


TAF provided by NWS Guam
2015/04/01 12:30
TAF PKWA 011124Z 0112/0212 06016KT P6SM VCSH SCT018 SCT040

      



Site Map | Contact Us | Copyright © 2007 Atmospheric Technology Services Company. All rights reserved.